Warsaw, NY (14569)

7:19 AM EST on March 05, 2015 (GMT -0500)
The Center Perry | Change Station
CLOSE
Current Station
Personal Weather Station
Location: Perry, NY
Elevation: 1358 ft
Nearby Weather Stations

Elev 1358 ft 42.72 °N, 78.00 °W | Updated 1 minute ago

Overcast
Overcast
8.6 °F
Feels Like -5 °F
N
9.4
Wind Variable Wind from West

Today
High -- | Low -- °F
--% Chance of Precip.
Yesterday
High -- | Low -- °F
Precip. -- in
6:42 AM 6:06 PM
Full, 100% visible
Pressure 30.28 in
Visibility 10.0 miles
Clouds Mostly Cloudy 3400 ft
Windchill -5 °F
Dew Point 2 °F
Humidity 74%
Rainfall in
Snow Depth Not available.
UV 0 out of 12
Pollen .50 out of 12
Air Quality Not available.
Flu Activity Not available.
METAR KDSV 051154Z AUTO 33010KT 10SM BKN034 M11/M16 A3022 RMK AO2 SLP252 60000 T11061156 11033 21106 51019

More Conditions Fewer Conditions

Pressure 30.28 in
Visibility 10.0 miles
Clouds Mostly Cloudy 3400 ft
Windchill -5 °F
Dew Point 2 °F
Humidity 74%
Rainfall in
Snow Depth Not available.
UV 0 out of 12
Pollen .50 out of 12
Air Quality Not available.
Flu Activity Not available.
METAR KDSV 051154Z AUTO 33010KT 10SM BKN034 M11/M16 A3022 RMK AO2 SLP252 60000 T11061156 11033 21106 51019

More Conditions Fewer Conditions

10-Day Weather Forecast

Almanac

Astronomy

Mar. 05, 2015 Rise Set
Actual Time
Civil Twilight
Nautical Twilight
Astronomical Twilight
Moon
Length of Visible Light
Length of Day
Tomorrow will be .
, % of the Moon is Illuminated

Today's Extremes

State Highs State Lows

Community

WunderPhotos

Upload Photos

1,802,715 photos uploaded!

WunderBlogs® & News

Nearby

Air Quality

  Air Quality AQ Index Pollutant
Not available.

Snow Depth

Station Depth Elevation

Earthquake Activity

City Distance Mag. Time & Date
Minimum magnitude displayed is 2.5.

Coastal Water Temperatures

Place Temperature

Nearby Weather Stations